Time;durP1;ratioP1;P1;durP2;ratioP2;P2;SDS_P1;SDS_P2;PMS_P1;PMS_P2;Temp;Humidity;BMP_temperature;BMP_pressure;BME280_temperature;BME280_humidity;BME280_pressure;Samples;Min_cycle;Max_cycle;Signal;HPM_P1;HPM_P2
2023/06/28 00:00:53;;;;;;;3.92;1.95;;;24.80;75.80;;;;;;5153959;27;20039;-60
2023/06/28 00:03:19;;;;;;;5.78;2.10;;;25.10;79.40;;;;;;5152108;27;20051;-62
2023/06/28 00:05:44;;;;;;;4.40;2.10;;;24.90;79.30;;;;;;5154169;27;20043;-64
2023/06/28 00:08:10;;;;;;;5.25;2.10;;;25.10;76.00;;;;;;5152502;27;20438;-66
2023/06/28 00:10:36;;;;;;;5.78;1.90;;;24.80;75.80;;;;;;5154229;27;20114;-63
2023/06/28 00:13:02;;;;;;;5.20;2.10;;;24.70;75.80;;;;;;5151100;27;20057;-62
2023/06/28 00:15:28;;;;;;;6.90;2.50;;;24.80;75.90;;;;;;5143356;27;20039;-62
2023/06/28 00:17:54;;;;;;;6.43;2.15;;;24.70;75.70;;;;;;5152374;27;20499;-60
2023/06/28 00:20:19;;;;;;;5.70;2.28;;;24.80;76.50;;;;;;5151806;27;20547;-62
2023/06/28 00:22:45;;;;;;;5.70;2.20;;;24.80;75.90;;;;;;5152827;27;20069;-62
2023/06/28 00:25:11;;;;;;;5.60;2.10;;;24.60;75.80;;;;;;5152852;27;20073;-61
2023/06/28 00:27:37;;;;;;;5.60;2.33;;;24.70;79.20;;;;;;5149829;27;20167;-59
2023/06/28 00:30:03;;;;;;;4.65;2.10;;;24.80;75.90;;;;;;5130842;27;20045;-66
2023/06/28 00:32:28;;;;;;;4.47;1.90;;;25.10;75.70;;;;;;5152819;27;20552;-61
2023/06/28 00:34:55;;;;;;;5.25;2.08;;;24.50;75.80;;;;;;5153926;27;20116;-64
2023/06/28 00:37:21;;;;;;;5.38;2.20;;;24.80;76.20;;;;;;5153593;27;20053;-62
2023/06/28 00:39:46;;;;;;;5.10;2.22;;;24.90;75.90;;;;;;5151458;27;20046;-62
2023/06/28 00:42:12;;;;;;;4.85;1.83;;;24.90;75.90;;;;;;5142238;27;20039;-60
2023/06/28 00:44:38;;;;;;;5.03;1.98;;;25.00;76.00;;;;;;5147929;27;20042;-61
2023/06/28 00:47:04;;;;;;;4.47;2.15;;;24.80;75.90;;;;;;5155328;27;20042;-61
2023/06/28 00:49:32;;;;;;;5.35;1.92;;;24.60;75.70;;;;;;5131312;27;20043;-62
2023/06/28 00:51:58;;;;;;;3.90;1.98;;;24.90;76.30;;;;;;5143142;27;20392;-70
2023/06/28 00:54:24;;;;;;;4.57;2.05;;;24.70;76.00;;;;;;5138678;27;20043;-63
2023/06/28 00:56:49;;;;;;;5.13;1.83;;;24.70;75.90;;;;;;5157043;27;20042;-68
2023/06/28 00:59:15;;;;;;;5.72;2.08;;;24.60;75.80;;;;;;5148332;27;20067;-67
2023/06/28 01:01:42;;;;;;;5.15;1.88;;;24.60;75.90;;;;;;5137441;27;20126;-60
2023/06/28 01:04:08;;;;;;;4.30;1.95;;;24.60;76.10;;;;;;5156864;27;20043;-72
2023/06/28 01:06:37;;;;;;;5.18;2.10;;;24.60;75.80;;;;;;5156627;27;20034;-64
2023/06/28 01:09:09;;;;;;;5.05;1.80;;;24.80;76.20;;;;;;5131717;27;20489;-61
2023/06/28 01:11:34;;;;;;;6.97;2.08;;;24.60;75.90;;;;;;5135421;27;20046;-63
2023/06/28 01:14:01;;;;;;;5.35;2.22;;;24.90;76.10;;;;;;5156215;27;20043;-63
2023/06/28 01:16:27;;;;;;;4.60;2.15;;;24.70;79.50;;;;;;5119584;27;20078;-72
2023/06/28 01:18:52;;;;;;;3.95;1.92;;;24.90;76.10;;;;;;5132564;27;20074;-66
2023/06/28 01:21:18;;;;;;;5.28;2.15;;;24.80;75.90;;;;;;5135542;27;20042;-71
2023/06/28 01:23:47;;;;;;;5.63;2.30;;;24.60;75.90;;;;;;5116381;27;20046;-60
2023/06/28 01:26:14;;;;;;;5.20;1.90;;;24.80;75.00;;;;;;5119626;27;20422;-69
2023/06/28 01:28:40;;;;;;;4.70;2.03;;;24.60;75.80;;;;;;5135912;27;20269;-66
2023/06/28 01:31:06;;;;;;;5.47;2.10;;;24.70;76.00;;;;;;5142872;27;20041;-64
2023/06/28 01:33:32;;;;;;;5.38;2.17;;;24.50;76.00;;;;;;5155922;27;20043;-69
2023/06/28 01:35:58;;;;;;;4.68;2.00;;;24.70;76.10;;;;;;5155915;27;20175;-67
2023/06/28 01:38:24;;;;;;;4.68;2.10;;;24.60;75.90;;;;;;5156239;27;20476;-61
2023/06/28 01:40:50;;;;;;;5.32;2.10;;;24.40;76.10;;;;;;5136876;27;20039;-61
2023/06/28 01:43:16;;;;;;;4.90;1.88;;;24.80;76.00;;;;;;5155973;27;20493;-68
2023/06/28 01:45:42;;;;;;;4.47;2.28;;;24.60;79.20;;;;;;5126536;27;20474;-66
2023/06/28 01:48:07;;;;;;;5.13;1.90;;;24.50;79.60;;;;;;5116813;27;20057;-62
2023/06/28 01:50:33;;;;;;;4.82;2.08;;;24.60;76.20;;;;;;5148009;27;20091;-62
2023/06/28 01:53:00;;;;;;;6.10;2.20;;;24.60;76.00;;;;;;5137152;27;20126;-68
2023/06/28 01:55:27;;;;;;;4.25;1.85;;;24.90;76.50;;;;;;5149391;27;20438;-63
2023/06/28 01:57:52;;;;;;;4.60;1.80;;;24.90;76.40;;;;;;5146123;27;20099;-60
2023/06/28 02:00:18;;;;;;;4.18;2.00;;;24.40;75.90;;;;;;5155120;27;20039;-64
2023/06/28 02:02:44;;;;;;;4.20;1.80;;;24.70;75.90;;;;;;5155280;27;20117;-61
2023/06/28 02:05:10;;;;;;;6.03;1.83;;;24.60;76.00;;;;;;5144373;27;20476;-59
2023/06/28 02:07:36;;;;;;;4.88;1.80;;;24.50;79.60;;;;;;5154718;27;20035;-62
2023/06/28 02:10:01;;;;;;;4.97;2.30;;;24.50;76.00;;;;;;5154947;27;20046;-60
2023/06/28 02:12:27;;;;;;;4.18;1.90;;;24.60;75.80;;;;;;5141542;27;20403;-61
2023/06/28 02:14:53;;;;;;;4.35;2.00;;;24.50;76.00;;;;;;5153579;27;20035;-67
2023/06/28 02:17:20;;;;;;;5.60;2.05;;;24.60;76.00;;;;;;5155453;27;20043;-64
2023/06/28 02:19:49;;;;;;;4.88;2.00;;;24.40;76.10;;;;;;5155388;27;20047;-61
2023/06/28 02:22:19;;;;;;;4.60;1.90;;;24.50;76.10;;;;;;5137901;27;20047;-64
2023/06/28 02:24:44;;;;;;;5.63;2.00;;;24.60;76.20;;;;;;5136469;27;20090;-60
2023/06/28 02:27:10;;;;;;;5.90;2.00;;;24.50;75.90;;;;;;5134553;27;20090;-66
2023/06/28 02:29:36;;;;;;;4.93;1.98;;;24.70;76.00;;;;;;5134576;27;20047;-63
2023/06/28 02:32:03;;;;;;;4.18;1.88;;;24.40;76.30;;;;;;5154018;27;20099;-63
2023/06/28 02:34:28;;;;;;;4.10;2.20;;;24.40;76.00;;;;;;5154882;27;20046;-59
2023/06/28 02:36:54;;;;;;;4.50;1.80;;;24.80;76.20;;;;;;5134234;27;20122;-70
2023/06/28 02:39:20;;;;;;;5.32;2.15;;;24.60;76.20;;;;;;5134649;27;20043;-67
2023/06/28 02:41:46;;;;;;;5.18;1.98;;;24.50;76.10;;;;;;5141073;27;20047;-65
2023/06/28 02:44:11;;;;;;;4.35;1.88;;;24.50;76.30;;;;;;5134451;27;20057;-60
2023/06/28 02:46:37;;;;;;;6.45;2.05;;;24.60;76.10;;;;;;5147979;27;20087;-60
2023/06/28 02:49:03;;;;;;;5.25;1.98;;;24.50;76.20;;;;;;5154908;27;20046;-60
2023/06/28 02:51:29;;;;;;;5.30;2.13;;;24.40;76.00;;;;;;5145575;27;20499;-60
2023/06/28 02:53:54;;;;;;;4.20;1.83;;;24.60;76.20;;;;;;5133984;27;20489;-64
2023/06/28 02:56:23;;;;;;;4.57;1.95;;;24.60;79.80;;;;;;5137180;27;20035;-62
2023/06/28 02:58:49;;;;;;;5.20;2.10;;;24.60;76.30;;;;;;5116645;27;20511;-64
2023/06/28 03:01:15;;;;;;;6.97;2.13;;;24.30;76.40;;;;;;5133868;27;20468;-60
2023/06/28 03:03:41;;;;;;;5.45;2.08;;;24.50;76.40;;;;;;5134110;27;20087;-60
2023/06/28 03:06:06;;;;;;;5.88;1.90;;;24.40;76.10;;;;;;5138663;27;20462;-60
2023/06/28 03:08:33;;;;;;;5.82;1.90;;;24.50;76.20;;;;;;5154527;27;20047;-59
2023/06/28 03:10:59;;;;;;;6.30;2.10;;;24.60;76.30;;;;;;5154306;27;20034;-59
2023/06/28 03:13:25;;;;;;;4.90;1.92;;;24.80;76.40;;;;;;5153596;27;20049;-60
2023/06/28 03:15:50;;;;;;;4.70;1.98;;;24.40;76.30;;;;;;5154033;27;20034;-62
2023/06/28 03:18:16;;;;;;;4.72;2.25;;;24.40;76.30;;;;;;5137075;27;20039;-59
2023/06/28 03:20:42;;;;;;;7.00;2.17;;;24.60;76.40;;;;;;5133611;27;20087;-63
2023/06/28 03:23:08;;;;;;;5.15;1.92;;;24.30;76.10;;;;;;5147237;27;20042;-60
2023/06/28 03:25:34;;;;;;;4.95;2.28;;;24.40;76.40;;;;;;5152746;27;20055;-65
2023/06/28 03:28:00;;;;;;;5.40;2.03;;;24.40;76.40;;;;;;5133893;27;20492;-59
2023/06/28 03:30:26;;;;;;;5.03;2.10;;;24.50;76.30;;;;;;5116089;27;20044;-61
2023/06/28 03:32:52;;;;;;;5.15;2.10;;;24.40;79.40;;;;;;5150099;27;20049;-69
2023/06/28 03:35:17;;;;;;;5.57;2.17;;;24.50;76.30;;;;;;5153705;27;20030;-65
2023/06/28 03:37:54;;;;;;;5.40;1.98;;;24.70;76.60;;;;;;5153630;27;20078;-64
2023/06/28 03:40:20;;;;;;;6.32;1.90;;;24.60;75.50;;;;;;5153891;27;20047;-63
2023/06/28 03:42:47;;;;;;;4.78;1.70;;;24.40;76.30;;;;;;5152681;27;20050;-68
2023/06/28 03:45:16;;;;;;;5.22;1.95;;;24.60;76.60;;;;;;5154460;27;20133;-68
2023/06/28 03:47:42;;;;;;;6.05;2.72;;;24.50;75.20;;;;;;5153588;27;20118;-61
2023/06/28 03:50:08;;;;;;;5.75;2.17;;;24.60;79.70;;;;;;5153406;27;20126;-70
2023/06/28 03:52:34;;;;;;;5.95;2.20;;;24.40;75.90;;;;;;5152656;27;20046;-62
2023/06/28 03:55:00;;;;;;;6.15;2.40;;;24.40;76.60;;;;;;5148181;27;20050;-62
2023/06/28 03:57:26;;;;;;;5.05;2.25;;;24.20;76.20;;;;;;5145839;27;20473;-61
2023/06/28 03:59:52;;;;;;;5.50;2.35;;;24.60;79.60;;;;;;5132881;27;20523;-63
2023/06/28 04:02:17;;;;;;;6.10;1.88;;;24.60;76.30;;;;;;5149671;27;20173;-67
2023/06/28 04:04:43;;;;;;;5.07;1.95;;;24.70;80.00;;;;;;5147622;27;20126;-60
2023/06/28 04:07:09;;;;;;;8.07;2.10;;;24.30;79.40;;;;;;5149854;27;20050;-63
2023/06/28 04:09:35;;;;;;;4.65;1.80;;;24.60;76.50;;;;;;5153413;27;20129;-65
2023/06/28 04:12:00;;;;;;;4.95;2.10;;;24.80;76.50;;;;;;5154245;27;20048;-61
2023/06/28 04:14:26;;;;;;;5.10;1.98;;;24.20;76.30;;;;;;5150687;27;20047;-63
2023/06/28 04:16:52;;;;;;;4.95;1.67;;;24.60;76.50;;;;;;5135420;27;20054;-61
2023/06/28 04:19:18;;;;;;;4.95;1.50;;;24.50;76.50;;;;;;5152522;27;20041;-61
2023/06/28 04:21:44;;;;;;;5.10;1.70;;;24.50;76.70;;;;;;5154803;27;20488;-61
2023/06/28 04:24:09;;;;;;;6.50;2.15;;;24.50;76.60;;;;;;5143897;27;20063;-66
2023/06/28 04:26:35;;;;;;;6.63;2.00;;;24.50;76.70;;;;;;5141163;27;20135;-62
2023/06/28 04:29:01;;;;;;;5.20;1.98;;;24.70;76.80;;;;;;5138385;27;20035;-62
2023/06/28 04:31:27;;;;;;;5.85;2.17;;;24.40;76.70;;;;;;5152735;27;20091;-61
2023/06/28 04:33:56;;;;;;;6.90;2.20;;;24.40;76.70;;;;;;5136864;27;20046;-68
2023/06/28 04:36:22;;;;;;;4.85;2.08;;;24.40;75.70;;;;;;5136717;27;20035;-66
2023/06/28 04:38:54;;;;;;;6.93;2.05;;;24.60;76.80;;;;;;5150466;27;20038;-63
2023/06/28 04:41:26;;;;;;;6.78;2.33;;;24.40;77.60;;;;;;5136930;27;20108;-60
2023/06/28 04:43:56;;;;;;;8.37;3.27;;;24.50;77.10;;;;;;5137056;27;20046;-66
2023/06/28 04:46:22;;;;;;;10.40;3.50;;;24.60;75.50;;;;;;5136817;27;20692;-71
2023/06/28 04:48:48;;;;;;;7.85;3.20;;;24.60;76.40;;;;;;5155207;27;20400;-60
2023/06/28 04:51:14;;;;;;;6.82;3.10;;;24.20;76.40;;;;;;5157438;27;20035;-66
2023/06/28 04:53:40;;;;;;;8.85;2.95;;;24.40;76.70;;;;;;5156346;27;20057;-61
2023/06/28 04:56:06;;;;;;;6.28;3.33;;;24.20;76.60;;;;;;5138796;27;20119;-70
2023/06/28 04:58:33;;;;;;;7.57;2.95;;;24.00;76.50;;;;;;5155396;27;20114;-64
2023/06/28 05:01:02;;;;;;;7.78;2.60;;;24.10;80.20;;;;;;5155994;27;20503;-60
2023/06/28 05:03:29;;;;;;;8.25;2.70;;;24.00;76.90;;;;;;5155956;27;20133;-72
2023/06/28 05:05:54;;;;;;;7.25;2.38;;;24.20;77.10;;;;;;5155642;27;20039;-62
2023/06/28 05:08:21;;;;;;;5.32;2.22;;;24.20;76.90;;;;;;5156437;27;20050;-62
2023/06/28 05:10:46;;;;;;;8.40;2.88;;;23.80;80.20;;;;;;5143872;27;20039;-71
2023/06/28 05:13:12;;;;;;;6.85;2.42;;;24.10;76.90;;;;;;5136394;27;20058;-65
2023/06/28 05:15:38;;;;;;;8.38;2.92;;;24.10;76.50;;;;;;5141972;27;20047;-69
2023/06/28 05:18:04;;;;;;;5.50;2.30;;;24.10;79.80;;;;;;5138339;27;20492;-64
2023/06/28 05:20:31;;;;;;;9.57;2.40;;;24.30;76.80;;;;;;5155930;27;20043;-63
2023/06/28 05:23:22;;;;;;;5.72;2.38;;;24.50;77.10;;;;;;5137173;27;20403;-69
2023/06/28 05:25:47;;;;;;;6.95;2.60;;;24.50;76.20;;;;;;5128393;27;20082;-64
2023/06/28 05:28:14;;;;;;;5.03;2.00;;;24.40;80.40;;;;;;5136059;27;20043;-61
2023/06/28 05:30:41;;;;;;;7.03;2.25;;;24.20;77.00;;;;;;5150857;27;20104;-60
2023/06/28 05:33:07;;;;;;;5.35;2.17;;;24.10;76.90;;;;;;5154299;27;20043;-61
2023/06/28 05:35:33;;;;;;;5.50;2.20;;;24.00;79.70;;;;;;5152098;27;20043;-66
2023/06/28 05:38:00;;;;;;;6.78;2.33;;;24.50;76.90;;;;;;5144638;27;20045;-61
2023/06/28 05:40:28;;;;;;;4.97;2.47;;;24.50;76.80;;;;;;5154766;27;20437;-62
2023/06/28 05:42:55;;;;;;;5.40;2.10;;;24.50;76.90;;;;;;5153276;27;20058;-60
2023/06/28 05:45:21;;;;;;;5.93;1.90;;;24.40;76.70;;;;;;5156882;27;20073;-61
2023/06/28 05:47:49;;;;;;;6.53;2.25;;;24.60;77.00;;;;;;5146064;27;20397;-61
2023/06/28 05:50:16;;;;;;;5.07;1.90;;;24.40;79.90;;;;;;5147299;27;20042;-62
2023/06/28 05:52:44;;;;;;;7.35;2.10;;;24.30;76.70;;;;;;5156257;27;20041;-69
2023/06/28 05:55:10;;;;;;;6.85;2.10;;;24.60;75.50;;;;;;5139694;27;20480;-60
2023/06/28 05:57:37;;;;;;;6.20;2.20;;;24.50;76.70;;;;;;5155439;27;20071;-61
2023/06/28 06:00:04;;;;;;;4.90;1.90;;;24.50;76.80;;;;;;5145886;27;20045;-60
2023/06/28 06:02:30;;;;;;;4.35;1.80;;;24.30;76.40;;;;;;5141731;27;20377;-68
2023/06/28 06:04:55;;;;;;;5.47;2.13;;;24.70;76.80;;;;;;5154553;27;20054;-64
2023/06/28 06:07:21;;;;;;;5.80;2.20;;;24.60;79.70;;;;;;5150789;27;20145;-62
2023/06/28 06:09:47;;;;;;;9.18;2.70;;;24.50;76.70;;;;;;5155487;27;20500;-70
2023/06/28 06:12:13;;;;;;;7.95;2.80;;;24.60;76.50;;;;;;5154362;27;20428;-66
2023/06/28 06:14:38;;;;;;;6.05;2.35;;;24.40;76.40;;;;;;5155869;27;20039;-61
2023/06/28 06:17:05;;;;;;;5.90;2.40;;;24.50;76.40;;;;;;5155920;27;20045;-61
2023/06/28 06:19:31;;;;;;;6.65;2.65;;;24.20;76.00;;;;;;5150870;27;20047;-60
2023/06/28 06:21:57;;;;;;;6.15;2.60;;;24.40;76.50;;;;;;5134753;27;20046;-62
2023/06/28 06:24:22;;;;;;;6.57;2.65;;;24.40;76.70;;;;;;5134980;27;20103;-62
2023/06/28 06:26:48;;;;;;;7.88;3.08;;;24.30;76.40;;;;;;5135175;27;20050;-60
2023/06/28 06:29:14;;;;;;;10.27;3.15;;;24.30;76.50;;;;;;5144293;27;20041;-63
2023/06/28 06:31:40;;;;;;;7.80;2.75;;;24.10;79.80;;;;;;5134496;27;20123;-61
2023/06/28 06:34:05;;;;;;;7.00;3.00;;;23.90;76.80;;;;;;5134482;27;20139;-60
2023/06/28 06:36:31;;;;;;;6.82;2.90;;;24.10;77.00;;;;;;5142166;27;20114;-70
2023/06/28 06:38:57;;;;;;;6.82;3.08;;;24.10;77.10;;;;;;5145806;27;20071;-60
2023/06/28 06:41:23;;;;;;;7.50;3.25;;;24.20;77.20;;;;;;5149205;27;20030;-68
2023/06/28 06:43:51;;;;;;;7.03;3.15;;;24.00;77.20;;;;;;5154685;27;20503;-61
2023/06/28 06:46:20;;;;;;;8.18;3.17;;;24.10;77.60;;;;;;5154940;27;20128;-60
2023/06/28 06:48:47;;;;;;;7.25;3.10;;;24.10;76.40;;;;;;5144141;27;20488;-62
2023/06/28 06:51:13;;;;;;;9.15;2.80;;;24.20;80.20;;;;;;5135446;27;20037;-60
2023/06/28 06:53:38;;;;;;;6.63;2.75;;;24.00;77.40;;;;;;5155055;27;20038;-59
2023/06/28 06:56:05;;;;;;;8.85;3.10;;;23.90;77.20;;;;;;5155059;27;20049;-60
2023/06/28 06:58:30;;;;;;;9.95;2.83;;;24.00;80.20;;;;;;5148838;27;20058;-65
2023/06/28 07:00:56;;;;;;;7.63;2.72;;;23.90;77.40;;;;;;5149022;27;20039;-63
2023/06/28 07:03:22;;;;;;;7.32;3.00;;;24.10;77.60;;;;;;5141273;27;20035;-60
2023/06/28 07:05:48;;;;;;;9.05;3.00;;;24.30;77.60;;;;;;5154615;27;20503;-61
2023/06/28 07:08:14;;;;;;;8.65;2.85;;;24.10;80.20;;;;;;5153946;27;20095;-60
2023/06/28 07:10:39;;;;;;;8.18;2.67;;;24.20;80.50;;;;;;5153119;27;20156;-60
2023/06/28 07:13:05;;;;;;;9.18;3.03;;;24.00;77.50;;;;;;5152211;27;20067;-60
2023/06/28 07:15:31;;;;;;;6.97;2.55;;;23.90;81.00;;;;;;5154722;27;20030;-60
2023/06/28 07:17:57;;;;;;;7.28;2.83;;;23.90;80.30;;;;;;5153059;27;20658;-66
2023/06/28 07:20:22;;;;;;;7.00;2.83;;;24.00;77.40;;;;;;5152956;27;20391;-61
2023/06/28 07:22:48;;;;;;;7.15;2.90;;;24.00;77.40;;;;;;5153984;27;20039;-62
2023/06/28 07:25:14;;;;;;;7.35;3.25;;;24.00;77.60;;;;;;5149140;27;20495;-66
2023/06/28 07:27:40;;;;;;;8.32;3.15;;;24.10;77.50;;;;;;5141674;27;20423;-67
2023/06/28 07:30:07;;;;;;;7.53;3.33;;;24.10;77.90;;;;;;5152042;27;20230;-68
2023/06/28 07:32:33;;;;;;;8.20;3.33;;;24.20;78.20;;;;;;5154207;27;20084;-67
2023/06/28 07:34:59;;;;;;;7.13;3.13;;;23.90;78.00;;;;;;5153143;27;20063;-61
2023/06/28 07:37:26;;;;;;;6.93;3.15;;;24.00;77.90;;;;;;5145989;27;20117;-60
2023/06/28 07:39:52;;;;;;;6.40;3.03;;;23.90;80.90;;;;;;5143557;27;20162;-60
2023/06/28 07:42:19;;;;;;;6.85;3.47;;;23.80;78.00;;;;;;5142960;27;20484;-60
2023/06/28 07:44:45;;;;;;;8.13;3.78;;;23.80;81.60;;;;;;5146355;27;20051;-62
2023/06/28 07:47:11;;;;;;;8.35;3.53;;;23.80;78.00;;;;;;5134184;27;20131;-67
2023/06/28 07:49:38;;;;;;;6.82;3.50;;;23.50;81.20;;;;;;5148662;27;20080;-61
2023/06/28 07:52:04;;;;;;;7.18;3.25;;;23.60;81.10;;;;;;5130995;27;20038;-61
2023/06/28 07:54:30;;;;;;;7.13;3.92;;;23.50;78.00;;;;;;5142049;27;20611;-60
2023/06/28 07:56:56;;;;;;;8.07;3.33;;;23.80;81.80;;;;;;5146681;27;20031;-60
2023/06/28 07:59:22;;;;;;;8.07;3.80;;;23.90;78.10;;;;;;5139948;27;20074;-60
2023/06/28 08:01:49;;;;;;;13.35;4.30;;;23.80;78.30;;;;;;5143642;27;20074;-66
2023/06/28 08:04:20;;;;;;;9.50;4.00;;;23.60;78.40;;;;;;5147899;27;20076;-61
2023/06/28 08:06:46;;;;;;;9.52;4.38;;;23.70;78.00;;;;;;5152797;27;20043;-60
2023/06/28 08:09:12;;;;;;;7.03;4.30;;;23.80;78.30;;;;;;5153004;27;20043;-62
2023/06/28 08:11:37;;;;;;;9.98;3.80;;;23.80;78.40;;;;;;5142434;27;20042;-63
2023/06/28 08:14:04;;;;;;;9.15;3.92;;;23.80;81.40;;;;;;5154630;27;20133;-60
2023/06/28 08:16:30;;;;;;;8.88;4.22;;;23.50;78.50;;;;;;5150581;27;20047;-60
2023/06/28 08:18:55;;;;;;;10.25;4.05;;;24.00;78.60;;;;;;5158200;27;20365;-59
2023/06/28 08:21:21;;;;;;;8.60;4.10;;;23.70;78.60;;;;;;5145303;27;20364;-61
2023/06/28 08:23:47;;;;;;;8.73;4.30;;;24.00;78.60;;;;;;5150934;27;20061;-60
2023/06/28 08:26:13;;;;;;;7.72;4.03;;;23.70;78.40;;;;;;5146445;27;20543;-60
2023/06/28 08:28:38;;;;;;;8.18;3.92;;;23.70;78.60;;;;;;5141890;27;20129;-61
2023/06/28 08:31:04;;;;;;;8.45;3.60;;;23.70;78.70;;;;;;5152396;27;20054;-60
2023/06/28 08:33:31;;;;;;;8.93;4.38;;;23.80;79.00;;;;;;5156685;27;20046;-65
2023/06/28 08:35:59;;;;;;;7.95;3.83;;;23.90;78.20;;;;;;5130471;27;20072;-60
2023/06/28 08:38:25;;;;;;;9.85;4.20;;;23.70;81.80;;;;;;5138272;27;20101;-60
2023/06/28 08:40:51;;;;;;;8.88;3.95;;;23.80;79.00;;;;;;5148794;27;20067;-61
2023/06/28 08:43:21;;;;;;;12.23;3.97;;;23.80;79.10;;;;;;5137040;27;20081;-60
2023/06/28 08:45:49;;;;;;;11.23;4.65;;;24.00;78.00;;;;;;5139632;27;20035;-60
2023/06/28 08:48:17;;;;;;;11.77;4.35;;;23.80;77.90;;;;;;5136448;27;20050;-60
2023/06/28 08:50:43;;;;;;;8.27;4.18;;;23.80;82.30;;;;;;5118374;27;20987;-68
2023/06/28 08:53:11;;;;;;;7.50;4.10;;;23.90;79.40;;;;;;5140993;27;20503;-65
2023/06/28 08:55:37;;;;;;;8.82;4.13;;;23.90;79.90;;;;;;5133980;27;20069;-60
2023/06/28 08:58:04;;;;;;;10.25;3.95;;;24.00;79.80;;;;;;5139154;27;20074;-60
2023/06/28 09:00:30;;;;;;;9.98;4.15;;;23.70;80.00;;;;;;5149371;27;20129;-62
2023/06/28 09:02:57;;;;;;;10.07;4.15;;;23.80;82.80;;;;;;5128370;27;20122;-61
2023/06/28 09:05:22;;;;;;;7.88;4.28;;;23.70;79.90;;;;;;5147172;27;20065;-60
2023/06/28 09:07:50;;;;;;;9.80;4.50;;;23.90;79.90;;;;;;5135282;27;20039;-60
2023/06/28 09:10:16;;;;;;;8.63;4.65;;;23.70;80.00;;;;;;5138950;27;20070;-63
2023/06/28 09:12:41;;;;;;;8.75;4.60;;;24.00;80.00;;;;;;5127489;27;20468;-63
2023/06/28 09:15:07;;;;;;;7.38;4.55;;;23.80;82.90;;;;;;5107622;27;20070;-61
2023/06/28 09:17:33;;;;;;;7.78;3.08;;;23.80;80.10;;;;;;5141342;27;20043;-65
2023/06/28 09:20:15;;;;;;;7.72;3.38;;;23.90;80.20;;;;;;5148688;27;20198;-65
2023/06/28 09:22:41;;;;;;;7.45;3.42;;;24.00;80.80;;;;;;5142435;27;20053;-62
2023/06/28 09:25:07;;;;;;;6.13;2.90;;;24.00;79.90;;;;;;5155368;27;20059;-60
2023/06/28 09:27:33;;;;;;;6.53;3.05;;;23.90;79.30;;;;;;5155200;27;20399;-68
2023/06/28 09:30:02;;;;;;;7.03;3.03;;;24.10;79.50;;;;;;5154799;27;20048;-60
2023/06/28 09:32:51;;;;;;;7.82;2.97;;;23.80;79.30;;;;;;5154786;27;20053;-61
2023/06/28 09:35:23;;;;;;;8.05;2.70;;;24.50;79.70;;;;;;5135340;27;20370;-69
2023/06/28 09:37:52;;;;;;;6.18;2.50;;;24.60;79.50;;;;;;5150873;27;20031;-63
2023/06/28 09:40:18;;;;;;;7.22;2.90;;;24.40;79.30;;;;;;5125753;27;20579;-62
2023/06/28 09:42:45;;;;;;;6.97;2.70;;;24.10;78.70;;;;;;5156562;27;20095;-60
2023/06/28 09:45:43;;;;;;;6.22;2.50;;;24.70;79.20;;;;;;5137817;27;20050;-60
2023/06/28 09:48:09;;;;;;;5.10;2.60;;;24.30;77.30;;;;;;5093246;28;20044;-60
2023/06/28 09:50:42;;;;;;;6.50;2.90;;;24.70;78.70;;;;;;5092174;28;20055;-61
2023/06/28 09:53:09;;;;;;;6.25;2.60;;;24.60;79.10;;;;;;5109586;28;20040;-61
2023/06/28 09:55:37;;;;;;;5.60;2.67;;;24.90;78.80;;;;;;5105235;27;20043;-61
2023/06/28 09:58:03;;;;;;;7.18;2.90;;;24.60;78.70;;;;;;5112415;28;20074;-60
2023/06/28 10:00:30;;;;;;;5.93;2.65;;;24.70;78.30;;;;;;5087609;28;20051;-62
2023/06/28 10:02:57;;;;;;;6.32;2.88;;;24.80;78.40;;;;;;5112334;28;20438;-61
2023/06/28 10:05:22;;;;;;;7.32;2.58;;;24.50;78.20;;;;;;5086287;28;20149;-60
2023/06/28 10:07:48;;;;;;;8.55;3.30;;;25.00;78.20;;;;;;5087559;28;20572;-63
2023/06/28 10:10:14;;;;;;;12.48;2.78;;;24.90;78.10;;;;;;5105186;28;20059;-61
2023/06/28 10:12:40;;;;;;;9.50;2.97;;;24.90;77.70;;;;;;5105276;28;20516;-61
2023/06/28 10:15:09;;;;;;;6.55;2.65;;;25.10;78.10;;;;;;5078538;28;20115;-61
2023/06/28 10:17:35;;;;;;;7.30;2.90;;;24.80;78.20;;;;;;5102922;28;20472;-61
2023/06/28 10:20:02;;;;;;;5.75;2.60;;;24.60;78.20;;;;;;5111179;28;20047;-62
2023/06/28 10:22:29;;;;;;;6.18;2.70;;;24.80;78.90;;;;;;5074759;28;20047;-68
2023/06/28 10:24:55;;;;;;;6.45;2.65;;;24.80;78.20;;;;;;5111174;28;20056;-62
2023/06/28 10:27:20;;;;;;;5.40;2.45;;;25.10;78.00;;;;;;5109888;28;20043;-61
2023/06/28 10:29:50;;;;;;;5.90;2.60;;;24.70;78.10;;;;;;5108967;28;20036;-61
2023/06/28 10:32:15;;;;;;;5.95;2.80;;;24.80;78.40;;;;;;5092431;28;20127;-61
2023/06/28 10:34:42;;;;;;;5.68;2.50;;;24.90;78.10;;;;;;5094590;28;20165;-61
2023/06/28 10:37:07;;;;;;;5.35;2.63;;;24.80;78.20;;;;;;5104325;28;20427;-61
2023/06/28 10:39:35;;;;;;;5.05;2.30;;;24.80;78.20;;;;;;5114183;28;20031;-61
2023/06/28 10:42:01;;;;;;;6.57;2.90;;;24.80;78.40;;;;;;5107785;28;20050;-61
2023/06/28 10:44:26;;;;;;;5.45;2.60;;;24.70;78.00;;;;;;5100359;28;20047;-61
2023/06/28 10:47:11;;;;;;;6.40;2.75;;;25.10;78.00;;;;;;5103917;28;20093;-61
2023/06/28 10:49:40;;;;;;;16.42;3.20;;;24.90;78.90;;;;;;5093293;28;20490;-60
2023/06/28 10:52:13;;;;;;;5.32;2.45;;;25.10;78.60;;;;;;5096538;28;20166;-61
2023/06/28 10:54:39;;;;;;;5.68;2.60;;;24.70;78.60;;;;;;5094527;28;20032;-61
2023/06/28 10:57:09;;;;;;;4.10;2.30;;;24.70;81.40;;;;;;5096188;28;20096;-62
2023/06/28 10:59:36;;;;;;;6.18;2.70;;;24.80;78.40;;;;;;5092820;28;20040;-63
2023/06/28 11:02:02;;;;;;;8.85;3.90;;;25.00;78.50;;;;;;5091839;28;20493;-67
2023/06/28 11:04:28;;;;;;;7.72;3.58;;;24.70;82.00;;;;;;5108199;28;20047;-68
2023/06/28 11:07:09;;;;;;;6.78;3.70;;;24.70;82.50;;;;;;5095217;28;20050;-65
2023/06/28 11:09:35;;;;;;;6.82;4.50;;;24.70;78.10;;;;;;5093444;28;20047;-70
2023/06/28 11:12:03;;;;;;;7.00;3.70;;;24.40;78.80;;;;;;5097087;28;20032;-68
2023/06/28 11:14:30;;;;;;;7.43;3.90;;;25.10;79.70;;;;;;5091054;28;20048;-61
2023/06/28 11:17:06;;;;;;;7.22;3.08;;;24.30;79.50;;;;;;5111308;28;20048;-61
2023/06/28 11:19:32;;;;;;;5.90;3.70;;;24.30;83.40;;;;;;5105330;28;20669;-67
2023/06/28 11:22:00;;;;;;;8.27;4.57;;;24.20;83.60;;;;;;5095513;28;20032;-65
2023/06/28 11:24:42;;;;;;;7.63;4.90;;;24.50;80.20;;;;;;5120441;27;20400;-60
2023/06/28 11:27:12;;;;;;;8.07;4.82;;;24.40;79.20;;;;;;5133778;27;20103;-61
2023/06/28 11:29:58;;;;;;;9.10;4.53;;;24.40;80.40;;;;;;5144825;27;20049;-62
2023/06/28 11:32:25;;;;;;;6.43;4.10;;;24.40;81.10;;;;;;5152517;27;20042;-60
2023/06/28 11:34:52;;;;;;;7.88;3.95;;;24.30;83.50;;;;;;5152962;27;20047;-62
2023/06/28 11:37:19;;;;;;;8.90;5.45;;;24.30;80.40;;;;;;5154204;27;20050;-62
2023/06/28 11:39:46;;;;;;;9.57;5.57;;;24.40;80.70;;;;;;5151249;27;20042;-62
2023/06/28 11:42:15;;;;;;;9.43;5.45;;;24.30;80.70;;;;;;5152079;27;20043;-70
2023/06/28 11:44:48;;;;;;;10.10;5.78;;;24.20;80.90;;;;;;5137694;27;20067;-61
2023/06/28 11:47:18;;;;;;;10.65;6.60;;;24.00;81.50;;;;;;5141454;27;20068;-61
2023/06/28 11:49:44;;;;;;;10.93;6.13;;;24.20;81.10;;;;;;5131712;27;20085;-74
2023/06/28 11:52:10;;;;;;;8.88;6.03;;;24.30;81.30;;;;;;5135615;27;20043;-66
2023/06/28 11:54:35;;;;;;;11.35;6.15;;;24.20;81.30;;;;;;5154323;27;20401;-73
2023/06/28 11:57:01;;;;;;;9.93;6.75;;;24.30;81.50;;;;;;5154278;27;20039;-69
2023/06/28 11:59:29;;;;;;;9.63;6.28;;;24.20;81.80;;;;;;5145617;27;20038;-64
2023/06/28 12:02:01;;;;;;;24.65;7.70;;;24.20;81.80;;;;;;5148321;27;20046;-60
2023/06/28 12:04:27;;;;;;;11.85;7.78;;;24.20;82.40;;;;;;5151515;27;20038;-62
2023/06/28 12:06:53;;;;;;;16.27;8.75;;;24.00;85.80;;;;;;5139513;27;20040;-64
2023/06/28 12:09:27;;;;;;;14.95;8.68;;;24.10;82.40;;;;;;5140150;27;20494;-65
2023/06/28 12:12:04;;;;;;;13.32;8.57;;;24.20;86.10;;;;;;5136026;27;20055;-61
2023/06/28 12:14:37;;;;;;;13.57;8.88;;;23.90;81.60;;;;;;5142279;27;20492;-61
2023/06/28 12:17:03;;;;;;;11.95;8.32;;;24.00;82.60;;;;;;5153872;27;20484;-60
2023/06/28 12:19:33;;;;;;;11.68;8.50;;;23.90;86.00;;;;;;5153234;27;20496;-72
2023/06/28 12:22:00;;;;;;;13.50;8.70;;;24.00;83.10;;;;;;5154160;27;20062;-73
2023/06/28 12:24:26;;;;;;;13.48;9.27;;;23.90;83.10;;;;;;5152334;27;20066;-72
2023/06/28 12:26:58;;;;;;;15.13;9.82;;;23.90;82.50;;;;;;5152832;27;20039;-70
2023/06/28 12:29:26;;;;;;;12.35;9.45;;;23.90;81.80;;;;;;5154071;27;20057;-65
2023/06/28 12:31:53;;;;;;;13.38;9.80;;;23.70;83.30;;;;;;5153700;27;20031;-70
2023/06/28 12:34:25;;;;;;;15.15;9.65;;;23.90;82.80;;;;;;5151118;27;20053;-65
2023/06/28 12:36:53;;;;;;;15.48;9.85;;;23.60;83.80;;;;;;5148859;27;20050;-72
2023/06/28 12:39:30;;;;;;;13.77;9.45;;;23.60;87.50;;;;;;5153602;27;20051;-60
2023/06/28 12:42:00;;;;;;;14.00;9.85;;;24.00;84.80;;;;;;5153553;27;20054;-60
2023/06/28 12:44:26;;;;;;;12.38;9.40;;;23.70;84.20;;;;;;5156357;27;20057;-61